createdAt,value
2019-05-10T00:00:18.593Z,99308.96
2019-05-10T00:03:07.188Z,99301.98
2019-05-10T00:05:55.889Z,99301.51
2019-05-10T00:08:44.508Z,99302.00
2019-05-10T00:11:28.659Z,99300.23
2019-05-10T00:14:13.104Z,99305.99
2019-05-10T00:16:44.975Z,99303.53
2019-05-10T00:19:15.621Z,99300.98
2019-05-10T00:21:45.922Z,99298.83
2019-05-10T00:24:16.163Z,99294.67
2019-05-10T00:26:46.482Z,99297.12
2019-05-10T00:29:17.085Z,99286.38
2019-05-10T00:31:47.418Z,99293.83
2019-05-10T00:34:18.009Z,99293.91
2019-05-10T00:36:48.318Z,99295.28
2019-05-10T00:39:19.561Z,99289.28
2019-05-10T00:41:51.283Z,99287.20
2019-05-10T00:44:23.550Z,99295.96
2019-05-10T00:46:53.932Z,99286.96
2019-05-10T00:49:24.603Z,99286.11
2019-05-10T00:51:55.254Z,99294.55
2019-05-10T00:54:27.059Z,99293.11
2019-05-10T00:56:57.713Z,99284.49
2019-05-10T00:59:28.090Z,99295.94
2019-05-10T01:01:58.648Z,99290.08
2019-05-10T01:04:29.308Z,99287.39
2019-05-10T01:07:00.557Z,99289.09
2019-05-10T01:09:30.789Z,99288.45
2019-05-10T01:12:01.023Z,99294.73
2019-05-10T01:14:31.647Z,99292.80
2019-05-10T01:17:02.454Z,99293.33
2019-05-10T01:19:33.080Z,99293.19
2019-05-10T01:22:03.395Z,99291.77
2019-05-10T01:24:33.611Z,99292.02
2019-05-10T01:27:04.177Z,99299.53
2019-05-10T01:29:35.656Z,99297.52
2019-05-10T01:32:05.861Z,99302.28
2019-05-10T01:34:36.154Z,99300.34
2019-05-10T01:37:06.371Z,99306.48
2019-05-10T01:39:36.612Z,99302.70
2019-05-10T01:42:06.832Z,99309.30
2019-05-10T01:44:37.048Z,99306.62
2019-05-10T01:47:07.357Z,99316.01
2019-05-10T01:49:37.591Z,99314.31
2019-05-10T01:52:07.834Z,99311.06
2019-05-10T01:54:38.069Z,99312.37
2019-05-10T01:57:08.305Z,99315.11
2019-05-10T01:59:38.890Z,99322.42
2019-05-10T02:02:09.179Z,99317.59
2019-05-10T02:04:39.461Z,99318.50
2019-05-10T02:07:09.727Z,99316.28
2019-05-10T02:09:39.936Z,99318.11
2019-05-10T02:12:10.584Z,99319.81
2019-05-10T02:14:40.948Z,99320.59
2019-05-10T02:17:11.161Z,99322.67
2019-05-10T02:19:41.396Z,99324.89
2019-05-10T02:22:11.657Z,99324.83
2019-05-10T02:24:41.876Z,99323.54
2019-05-10T02:27:12.156Z,99327.00
2019-05-10T02:29:42.326Z,99329.74
2019-05-10T02:32:12.931Z,99328.97
2019-05-10T02:34:43.578Z,99328.19
2019-05-10T02:37:14.355Z,99337.64
2019-05-10T02:39:44.708Z,99333.80
2019-05-10T02:42:15.335Z,99333.92
2019-05-10T02:44:45.962Z,99335.23
2019-05-10T02:47:16.285Z,99336.35
2019-05-10T02:49:46.518Z,99329.89
2019-05-10T02:52:17.154Z,99325.23
2019-05-10T02:54:48.138Z,99332.50
2019-05-10T02:57:19.729Z,99330.22
2019-05-10T02:59:51.396Z,99332.76
2019-05-10T03:02:22.438Z,99339.93
2019-05-10T03:04:54.695Z,99336.41
2019-05-10T03:07:26.738Z,99337.84
2019-05-10T03:10:00.059Z,99341.75
2019-05-10T03:12:30.312Z,99340.58
2019-05-10T03:15:02.971Z,99340.19
2019-05-10T03:17:33.601Z,99335.75
2019-05-10T03:20:05.933Z,99332.09
2019-05-10T03:22:44.060Z,99334.28
2019-05-10T03:25:14.913Z,99339.38
2019-05-10T03:27:45.639Z,99339.77
2019-05-10T03:30:17.030Z,99346.30
2019-05-10T03:32:47.396Z,99343.23
2019-05-10T03:35:17.786Z,99345.57
2019-05-10T03:37:48.734Z,99349.39
2019-05-10T03:40:19.369Z,99352.43
2019-05-10T03:42:50.717Z,99350.73
2019-05-10T03:45:22.114Z,99352.29
2019-05-10T03:47:52.621Z,99359.20
2019-05-10T03:50:22.843Z,99355.53
2019-05-10T03:52:53.113Z,99354.02
2019-05-10T03:55:23.300Z,99356.38
2019-05-10T03:57:53.509Z,99361.86
2019-05-10T04:00:24.107Z,99355.95
2019-05-10T04:02:54.315Z,99362.20
2019-05-10T04:05:24.549Z,99362.42
2019-05-10T04:07:54.779Z,99364.12
2019-05-10T04:10:25.010Z,99361.84
2019-05-10T04:12:55.264Z,99360.81
2019-05-10T04:15:25.466Z,99363.83
2019-05-10T04:17:55.703Z,99364.54
2019-05-10T04:20:26.320Z,99365.55
2019-05-10T04:22:56.669Z,99364.36
2019-05-10T04:25:27.074Z,99367.20
2019-05-10T04:27:57.329Z,99367.03
2019-05-10T04:30:31.641Z,99369.13
2019-05-10T04:32:59.634Z,99376.81
2019-05-10T04:35:29.937Z,99376.34
2019-05-10T04:38:00.496Z,99383.28
2019-05-10T04:40:31.170Z,99382.35
2019-05-10T04:43:01.461Z,99381.52
2019-05-10T04:45:32.105Z,99377.41
2019-05-10T04:48:02.426Z,99390.41
2019-05-10T04:50:32.656Z,99384.31
2019-05-10T04:53:03.261Z,99390.50
2019-05-10T04:55:35.702Z,99388.06
2019-05-10T04:58:06.462Z,99386.41
2019-05-10T05:00:37.142Z,99394.16
2019-05-10T05:03:07.827Z,99390.97
2019-05-10T05:05:38.192Z,99389.43
2019-05-10T05:08:08.660Z,99395.02
2019-05-10T05:10:39.221Z,99394.03
2019-05-10T05:13:09.909Z,99393.93
2019-05-10T05:15:40.550Z,99399.92
2019-05-10T05:18:10.858Z,99394.40
2019-05-10T05:20:41.429Z,99399.94
2019-05-10T05:23:13.023Z,99398.85
2019-05-10T05:25:43.675Z,99399.52
2019-05-10T05:28:18.302Z,99395.80
2019-05-10T05:30:47.950Z,99394.91
2019-05-10T05:33:18.208Z,99402.77
2019-05-10T05:35:48.796Z,99396.74
2019-05-10T05:38:19.099Z,99398.23
2019-05-10T05:40:49.717Z,99397.96
2019-05-10T05:43:20.359Z,99401.53
2019-05-10T05:45:51.057Z,99394.34
2019-05-10T05:48:23.098Z,99409.94
2019-05-10T05:50:55.602Z,99402.19
2019-05-10T05:53:26.172Z,99409.78
2019-05-10T05:55:56.833Z,99404.20
2019-05-10T05:58:27.569Z,99406.99
2019-05-10T06:00:58.295Z,99405.92
2019-05-10T06:03:29.729Z,99405.79
2019-05-10T06:06:00.657Z,99411.82
2019-05-10T06:08:31.234Z,99414.97
2019-05-10T06:11:02.478Z,99413.19
2019-05-10T06:13:32.825Z,99416.12
2019-05-10T06:16:06.417Z,99419.09
2019-05-10T06:18:35.167Z,99424.88
2019-05-10T06:21:05.866Z,99422.00
2019-05-10T06:23:37.389Z,99422.95
2019-05-10T06:26:20.980Z,99420.57
2019-05-10T06:28:58.585Z,99423.52
2019-05-10T06:31:12.415Z,99422.39
2019-05-10T06:33:45.160Z,99418.52
2019-05-10T06:36:14.627Z,99415.61
2019-05-10T06:38:45.196Z,99423.19
2019-05-10T06:41:16.716Z,99423.27
2019-05-10T06:43:51.381Z,99423.11
2019-05-10T06:46:23.523Z,99423.27
2019-05-10T06:48:52.143Z,99413.57
2019-05-10T06:51:22.725Z,99427.76
2019-05-10T06:53:53.974Z,99419.92
2019-05-10T06:56:25.965Z,99425.06
2019-05-10T06:59:12.000Z,99425.66
2019-05-10T07:01:29.005Z,99425.30
2019-05-10T07:04:00.632Z,99433.59
2019-05-10T07:06:31.302Z,99431.58
2019-05-10T07:09:01.959Z,99435.56
2019-05-10T07:11:32.252Z,99438.37
2019-05-10T07:14:02.490Z,99434.76
2019-05-10T07:16:32.702Z,99436.18
2019-05-10T07:19:02.952Z,99438.73
2019-05-10T07:21:33.166Z,99446.77
2019-05-10T07:24:03.424Z,99444.73
2019-05-10T07:26:35.083Z,99448.06
2019-05-10T07:29:05.657Z,99450.34
2019-05-10T07:31:36.795Z,99433.38
2019-05-10T07:34:15.450Z,99443.25
2019-05-10T07:36:42.100Z,99436.44
2019-05-10T07:39:12.398Z,99440.53
2019-05-10T07:41:43.065Z,99439.89
2019-05-10T07:44:15.777Z,99439.73
2019-05-10T07:46:49.696Z,99447.63
2019-05-10T07:49:18.496Z,99441.60
2019-05-10T07:51:50.419Z,99453.63
2019-05-10T07:54:21.042Z,99447.74
2019-05-10T07:56:51.809Z,99446.78
2019-05-10T07:59:27.996Z,99455.33
2019-05-10T08:01:54.245Z,99450.72
2019-05-10T08:04:28.940Z,99466.56
2019-05-10T08:06:56.461Z,99459.59
2019-05-10T08:09:31.451Z,99476.86
2019-05-10T08:12:05.104Z,99472.36
2019-05-10T08:14:34.570Z,99490.91
2019-05-10T08:17:06.246Z,99483.66
2019-05-10T08:19:38.938Z,99478.91
2019-05-10T08:22:09.504Z,99471.28
2019-05-10T08:24:46.441Z,99476.51
2019-05-10T08:27:14.781Z,99475.91
2019-05-10T08:29:44.113Z,99475.03
2019-05-10T08:32:19.261Z,99482.70
2019-05-10T08:34:53.057Z,99483.14
2019-05-10T08:37:30.430Z,99488.94
2019-05-10T08:39:56.022Z,99495.66
2019-05-10T08:42:40.089Z,99495.80
2019-05-10T08:45:03.959Z,99503.74
2019-05-10T08:47:32.154Z,99501.47
2019-05-10T08:50:18.438Z,99503.19
2019-05-10T08:52:34.198Z,99503.72
2019-05-10T08:55:07.543Z,99498.54
2019-05-10T08:57:44.216Z,99508.63
2019-05-10T09:00:12.988Z,99504.30
2019-05-10T09:02:42.956Z,99505.09
2019-05-10T09:05:13.682Z,99511.11
2019-05-10T09:07:45.417Z,99508.63
2019-05-10T09:10:18.223Z,99505.94
2019-05-10T09:12:54.325Z,99508.27
2019-05-10T09:15:22.256Z,99505.73
2019-05-10T09:17:52.939Z,99511.31
2019-05-10T09:20:26.335Z,99511.39
2019-05-10T09:22:56.563Z,99526.34
2019-05-10T09:25:30.894Z,99521.70
2019-05-10T09:28:04.520Z,99525.64
2019-05-10T09:30:53.181Z,99530.37
2019-05-10T09:33:11.413Z,99528.67
2019-05-10T09:35:47.024Z,99534.67
2019-05-10T09:38:14.877Z,99550.47
2019-05-10T09:40:51.181Z,99545.38
2019-05-10T09:43:20.985Z,99537.84
2019-05-10T09:45:49.867Z,99549.53
2019-05-10T09:48:22.837Z,99546.55
2019-05-10T09:50:56.264Z,99552.60
2019-05-10T09:53:27.555Z,99552.03
2019-05-10T09:56:02.600Z,99548.05
2019-05-10T09:58:29.651Z,99547.06
2019-05-10T10:01:13.868Z,99547.16
2019-05-10T10:03:39.828Z,99544.64
2019-05-10T10:06:07.811Z,99557.01
2019-05-10T10:08:38.422Z,99553.08
2019-05-10T10:11:15.111Z,99551.07
2019-05-10T10:13:43.936Z,99550.63
2019-05-10T10:16:14.939Z,99557.52
2019-05-10T10:18:47.531Z,99556.47
2019-05-10T10:21:26.980Z,99555.73
2019-05-10T10:23:51.867Z,99558.13
2019-05-10T10:26:22.672Z,99562.66
2019-05-10T10:28:55.285Z,99568.81
2019-05-10T10:31:30.449Z,99574.31
2019-05-10T10:34:00.338Z,99565.92
2019-05-10T10:36:29.983Z,99564.73
2019-05-10T10:39:00.279Z,99574.60
2019-05-10T10:41:31.888Z,99573.87
2019-05-10T10:44:02.474Z,99579.53
2019-05-10T10:46:34.851Z,99581.35
2019-05-10T10:49:06.024Z,99581.00
2019-05-10T10:51:37.973Z,99588.34
2019-05-10T10:54:08.338Z,99591.10
2019-05-10T10:56:39.481Z,99591.98
2019-05-10T10:59:10.135Z,99592.73
2019-05-10T11:01:49.863Z,99592.56
2019-05-10T11:04:16.156Z,99601.48
2019-05-10T11:06:45.080Z,99590.73
2019-05-10T11:09:15.769Z,99588.94
2019-05-10T11:11:46.029Z,99590.31
2019-05-10T11:14:16.643Z,99585.89
2019-05-10T11:16:52.953Z,99590.17
2019-05-10T11:19:20.449Z,99592.06
2019-05-10T11:21:51.811Z,99588.39
2019-05-10T11:24:23.072Z,99592.86
2019-05-10T11:26:53.899Z,99592.64
2019-05-10T11:29:27.708Z,99593.07
2019-05-10T11:32:12.170Z,99598.59
2019-05-10T11:34:37.190Z,99599.20
2019-05-10T11:37:01.628Z,99606.92
2019-05-10T11:39:40.264Z,99601.21
2019-05-10T11:42:07.395Z,99598.23
2019-05-10T11:44:41.586Z,99605.89
2019-05-10T11:47:22.938Z,99608.09
2019-05-10T11:49:42.187Z,99602.02
2019-05-10T11:52:13.228Z,99612.47
2019-05-10T11:54:43.762Z,99609.23
2019-05-10T11:57:14.044Z,99610.83
2019-05-10T11:59:44.306Z,99609.30
2019-05-10T12:02:32.700Z,99619.59
2019-05-10T12:04:46.877Z,99615.92
2019-05-10T12:07:26.017Z,99610.39
2019-05-10T12:09:53.295Z,99616.27
2019-05-10T12:12:29.531Z,99617.23
2019-05-10T12:14:56.466Z,99621.39
2019-05-10T12:17:26.751Z,99627.33
2019-05-10T12:19:57.023Z,99621.46
2019-05-10T12:22:32.213Z,99621.09
2019-05-10T12:25:20.527Z,99619.28
2019-05-10T12:27:44.379Z,99623.32
2019-05-10T12:30:06.357Z,99627.03
2019-05-10T12:32:46.864Z,99625.44
2019-05-10T12:35:11.633Z,99623.59
2019-05-10T12:37:46.364Z,99630.42
2019-05-10T12:40:15.508Z,99624.03
2019-05-10T12:42:47.084Z,99625.66
2019-05-10T12:45:22.894Z,99627.98
2019-05-10T12:47:52.111Z,99627.06
2019-05-10T12:50:24.041Z,99631.18
2019-05-10T12:53:03.152Z,99630.81
2019-05-10T12:55:28.083Z,99630.34
2019-05-10T12:58:00.811Z,99629.22
2019-05-10T13:00:32.879Z,99645.39
2019-05-10T13:03:12.160Z,99638.69
2019-05-10T13:05:51.477Z,99643.98
2019-05-10T13:08:08.456Z,99655.31
2019-05-10T13:10:43.353Z,99650.58
2019-05-10T13:13:11.689Z,99653.34
2019-05-10T13:15:42.364Z,99651.47
2019-05-10T13:18:12.649Z,99650.95
2019-05-10T13:20:45.612Z,99646.44
2019-05-10T13:23:18.502Z,99655.34
2019-05-10T13:25:48.592Z,99659.63
2019-05-10T13:28:19.230Z,99655.63
2019-05-10T13:30:49.888Z,99655.35
2019-05-10T13:33:28.587Z,99656.42
2019-05-10T13:35:56.713Z,99660.94
2019-05-10T13:38:24.920Z,99653.81
2019-05-10T13:40:55.604Z,99656.73
2019-05-10T13:43:28.224Z,99661.02
2019-05-10T13:45:58.676Z,99661.61
2019-05-10T13:48:29.298Z,99656.23
2019-05-10T13:50:59.975Z,99661.42
2019-05-10T13:53:30.695Z,99666.94
2019-05-10T13:56:01.273Z,99667.42
2019-05-10T13:58:31.522Z,99670.41
2019-05-10T14:01:06.697Z,99666.63
2019-05-10T14:03:44.075Z,99675.39
2019-05-10T14:06:06.011Z,99662.27
2019-05-10T14:08:42.930Z,99669.28
2019-05-10T14:11:12.742Z,99653.76
2019-05-10T14:13:43.413Z,99669.81
2019-05-10T14:16:19.652Z,99668.52
2019-05-10T14:18:46.175Z,99664.80
2019-05-10T14:21:16.391Z,99672.64
2019-05-10T14:23:46.995Z,99669.64
2019-05-10T14:26:18.341Z,99674.26
2019-05-10T14:28:53.167Z,99671.84
2019-05-10T14:31:21.008Z,99672.33
2019-05-10T14:34:14.040Z,99673.54
2019-05-10T14:36:24.118Z,99675.58
2019-05-10T14:38:56.385Z,99681.61
2019-05-10T14:41:26.975Z,99672.58
2019-05-10T14:43:58.876Z,99670.28
2019-05-10T14:46:30.655Z,99669.80
2019-05-10T14:49:08.877Z,99679.33
2019-05-10T14:51:49.315Z,99675.43
2019-05-10T14:54:08.870Z,99679.52
2019-05-10T14:56:49.387Z,99677.96
2019-05-10T14:59:20.030Z,99677.00
2019-05-10T15:01:50.503Z,99682.17
2019-05-10T15:04:43.828Z,99681.13
2019-05-10T15:06:53.507Z,99681.73
2019-05-10T15:09:25.233Z,99680.16
2019-05-10T15:11:55.927Z,99669.67
2019-05-10T15:14:26.700Z,99679.43
2019-05-10T15:16:57.389Z,99683.29
2019-05-10T15:19:31.535Z,99687.16
2019-05-10T15:22:01.493Z,99678.72
2019-05-10T15:24:31.810Z,99683.29
2019-05-10T15:27:02.060Z,99682.89
2019-05-10T15:29:34.869Z,99680.08
2019-05-10T15:32:07.244Z,99688.83
2019-05-10T15:34:37.877Z,99681.21
2019-05-10T15:37:09.447Z,99690.42
2019-05-10T15:39:40.872Z,99688.70
2019-05-10T15:42:11.560Z,99690.34
2019-05-10T15:44:45.526Z,99688.16
2019-05-10T15:47:20.368Z,99689.84
2019-05-10T15:49:49.332Z,99698.64
2019-05-10T15:52:23.334Z,99696.73
2019-05-10T15:54:52.144Z,99710.33
2019-05-10T15:57:23.519Z,99707.16
2019-05-10T15:59:56.461Z,99703.04
2019-05-10T16:02:25.926Z,99715.30
2019-05-10T16:04:56.230Z,99702.25
2019-05-10T16:07:30.477Z,99704.89
2019-05-10T16:10:00.725Z,99704.15
2019-05-10T16:12:31.324Z,99701.84
2019-05-10T16:15:01.689Z,99706.01
2019-05-10T16:17:33.400Z,99710.89
2019-05-10T16:20:04.993Z,99704.66
2019-05-10T16:22:35.523Z,99707.22
2019-05-10T16:25:09.590Z,99716.30
2019-05-10T16:27:44.836Z,99717.48
2019-05-10T16:30:17.718Z,99717.48
2019-05-10T16:32:45.813Z,99722.88
2019-05-10T16:35:16.150Z,99723.30
2019-05-10T16:37:46.475Z,99715.61
2019-05-10T16:40:16.879Z,99720.82
2019-05-10T16:42:47.187Z,99719.98
2019-05-10T16:45:17.491Z,99723.02
2019-05-10T16:47:47.704Z,99726.05
2019-05-10T16:50:18.405Z,99721.95
2019-05-10T16:52:49.116Z,99723.27
2019-05-10T16:55:19.400Z,99729.47
2019-05-10T16:57:51.195Z,99729.67
2019-05-10T17:00:23.596Z,99735.12
2019-05-10T17:02:54.308Z,99732.48
2019-05-10T17:05:24.604Z,99739.52
2019-05-10T17:07:58.822Z,99731.09
2019-05-10T17:10:32.501Z,99743.30
2019-05-10T17:12:59.531Z,99741.98
2019-05-10T17:15:33.762Z,99745.73
2019-05-10T17:18:03.991Z,99744.77
2019-05-10T17:20:34.308Z,99748.40
2019-05-10T17:23:09.063Z,99748.25
2019-05-10T17:25:40.671Z,99749.91
2019-05-10T17:28:10.936Z,99750.25
2019-05-10T17:30:44.773Z,99750.08
2019-05-10T17:33:14.026Z,99757.41
2019-05-10T17:35:44.354Z,99755.39
2019-05-10T17:38:16.274Z,99754.28
2019-05-10T17:40:49.813Z,99765.88
2019-05-10T17:43:22.605Z,99765.41
2019-05-10T17:45:51.635Z,99765.70
2019-05-10T17:48:24.153Z,99760.16
2019-05-10T17:50:54.393Z,99768.82
2019-05-10T17:53:24.615Z,99763.35
2019-05-10T17:55:57.322Z,99770.39
2019-05-10T17:58:33.593Z,99771.34
2019-05-10T18:01:01.150Z,99777.28
2019-05-10T18:03:31.859Z,99771.80
2019-05-10T18:06:02.511Z,99776.64
2019-05-10T18:08:35.653Z,99783.05
2019-05-10T18:11:06.227Z,99786.04
2019-05-10T18:13:40.840Z,99781.77
2019-05-10T18:16:09.510Z,99777.95
2019-05-10T18:18:46.186Z,99781.99
2019-05-10T18:21:22.062Z,99778.09
2019-05-10T18:23:47.259Z,99777.20
2019-05-10T18:26:17.897Z,99782.52
2019-05-10T18:28:48.941Z,99780.87
2019-05-10T18:31:19.564Z,99785.08
2019-05-10T18:33:54.593Z,99783.33
2019-05-10T18:36:26.755Z,99788.05
2019-05-10T18:38:55.188Z,99786.89
2019-05-10T18:41:28.583Z,99797.73
2019-05-10T18:43:58.869Z,99797.92
2019-05-10T18:46:30.701Z,99791.31
2019-05-10T18:49:01.366Z,99795.36
2019-05-10T18:51:34.948Z,99800.72
2019-05-10T18:54:08.306Z,99809.89
2019-05-10T18:56:38.949Z,99814.97
2019-05-10T18:59:09.528Z,99804.78
2019-05-10T19:01:40.684Z,99808.44
2019-05-10T19:04:14.582Z,99813.09
2019-05-10T19:06:50.038Z,99810.84
2019-05-10T19:09:17.354Z,99813.88
2019-05-10T19:11:47.856Z,99811.08
2019-05-10T19:14:18.438Z,99809.50
2019-05-10T19:16:48.763Z,99807.64
2019-05-10T19:19:19.158Z,99811.06
2019-05-10T19:21:49.545Z,99815.33
2019-05-10T19:24:24.263Z,99819.48
2019-05-10T19:26:52.207Z,99817.72
2019-05-10T19:29:22.754Z,99815.36
2019-05-10T19:31:58.893Z,99821.10
2019-05-10T19:34:29.521Z,99818.16
2019-05-10T19:37:01.374Z,99818.95
2019-05-10T19:39:31.709Z,99823.31
2019-05-10T19:42:04.048Z,99821.84
2019-05-10T19:44:34.821Z,99820.36
2019-05-10T19:47:11.219Z,99822.39
2019-05-10T19:49:38.434Z,99825.34
2019-05-10T19:52:09.092Z,99829.50
2019-05-10T19:54:39.450Z,99833.64
2019-05-10T19:57:16.466Z,99837.36
2019-05-10T19:59:44.128Z,99836.67
2019-05-10T20:02:14.456Z,99833.77
2019-05-10T20:04:45.245Z,99836.48
2019-05-10T20:07:19.339Z,99839.49
2019-05-10T20:09:51.179Z,99835.47
2019-05-10T20:12:21.840Z,99836.48
2019-05-10T20:14:52.283Z,99838.00
2019-05-10T20:17:23.006Z,99836.50
2019-05-10T20:19:54.857Z,99840.41
2019-05-10T20:22:26.739Z,99839.00
2019-05-10T20:24:57.063Z,99844.92
2019-05-10T20:27:27.279Z,99840.87
2019-05-10T20:29:59.378Z,99843.36
2019-05-10T20:32:29.684Z,99840.45
2019-05-10T20:35:00.343Z,99844.22
2019-05-10T20:37:31.004Z,99848.78
2019-05-10T20:40:02.094Z,99847.74
2019-05-10T20:42:32.454Z,99844.42
2019-05-10T20:45:08.571Z,99844.20
2019-05-10T20:47:35.589Z,99848.92
2019-05-10T20:50:07.564Z,99849.64
2019-05-10T20:52:37.849Z,99849.24
2019-05-10T20:55:08.941Z,99853.10
2019-05-10T20:57:39.157Z,99849.73
2019-05-10T21:00:09.881Z,99848.70
2019-05-10T21:02:40.910Z,99848.05
2019-05-10T21:05:11.454Z,99846.03
2019-05-10T21:07:41.751Z,99853.45
2019-05-10T21:10:13.131Z,99862.08
2019-05-10T21:12:43.606Z,99857.17
2019-05-10T21:15:13.957Z,99859.23
2019-05-10T21:17:44.231Z,99857.58
2019-05-10T21:20:15.067Z,99856.36
2019-05-10T21:22:45.285Z,99856.86
2019-05-10T21:25:16.051Z,99869.84
2019-05-10T21:27:47.346Z,99872.81
2019-05-10T21:30:18.647Z,99866.95
2019-05-10T21:32:49.360Z,99869.69
2019-05-10T21:35:20.030Z,99869.75
2019-05-10T21:37:50.775Z,99867.99
2019-05-10T21:40:21.136Z,99869.50
2019-05-10T21:42:51.354Z,99863.33
2019-05-10T21:45:22.024Z,99866.80
2019-05-10T21:47:53.645Z,99872.06
2019-05-10T21:50:24.233Z,99881.05
2019-05-10T21:52:54.977Z,99868.00
2019-05-10T21:55:25.674Z,99881.75
2019-05-10T21:57:56.313Z,99878.42
2019-05-10T22:00:29.365Z,99883.03
2019-05-10T22:03:02.024Z,99885.95
2019-05-10T22:05:32.462Z,99887.65
2019-05-10T22:08:02.727Z,99884.83
2019-05-10T22:10:33.016Z,99891.25
2019-05-10T22:13:03.223Z,99882.02
2019-05-10T22:15:33.442Z,99872.38
2019-05-10T22:18:03.755Z,99873.23
2019-05-10T22:20:33.962Z,99865.30
2019-05-10T22:23:04.807Z,99865.55
2019-05-10T22:25:35.403Z,99865.91
2019-05-10T22:28:06.052Z,99865.36
2019-05-10T22:30:36.798Z,99868.39
2019-05-10T22:33:09.609Z,99860.58
2019-05-10T22:35:39.066Z,99861.57
2019-05-10T22:38:09.325Z,99857.31
2019-05-10T22:40:39.573Z,99854.69
2019-05-10T22:43:10.206Z,99854.58
2019-05-10T22:45:40.885Z,99853.52
2019-05-10T22:48:11.549Z,99854.16
2019-05-10T22:50:42.210Z,99852.15
2019-05-10T22:53:12.508Z,99854.94
2019-05-10T22:55:42.720Z,99852.12
2019-05-10T22:58:13.071Z,99851.41
2019-05-10T23:00:43.716Z,99852.52
2019-05-10T23:03:13.956Z,99855.98
2019-05-10T23:05:44.246Z,99856.06
2019-05-10T23:08:14.525Z,99848.89
2019-05-10T23:10:44.814Z,99850.50
2019-05-10T23:13:15.102Z,99853.38
2019-05-10T23:15:45.730Z,99850.41
2019-05-10T23:18:16.379Z,99850.98
2019-05-10T23:20:47.092Z,99850.30
2019-05-10T23:23:20.951Z,99853.43
2019-05-10T23:25:49.803Z,99857.90
2019-05-10T23:28:20.048Z,99856.02
2019-05-10T23:30:50.340Z,99863.87
2019-05-10T23:33:20.889Z,99857.41
2019-05-10T23:35:51.231Z,99853.18
2019-05-10T23:38:24.583Z,99855.83
2019-05-10T23:40:55.154Z,99857.09
2019-05-10T23:43:25.795Z,99858.70
2019-05-10T23:45:56.107Z,99852.11
2019-05-10T23:48:26.327Z,99855.17
2019-05-10T23:50:56.979Z,99856.47
2019-05-10T23:53:27.297Z,99855.89
2019-05-10T23:55:57.915Z,99857.69
2019-05-10T23:58:28.738Z,99860.52
